Time;durP1;ratioP1;P1;durP2;ratioP2;P2;SDS_P1;SDS_P2;PMS_P1;PMS_P2;Temp;Humidity;BMP_temperature;BMP_pressure;BME280_temperature;BME280_humidity;BME280_pressure;Samples;Min_cycle;Max_cycle;Signal;HPM_P1;HPM_P2
2021/10/31 00:00:31;;;;;;;;;;;8.40;1.00;;;;;;5049923;28;20290;-74
2021/10/31 00:02:57;;;;;;;;;;;8.40;1.00;;;;;;5048727;28;19920;-74
2021/10/31 00:05:22;;;;;;;;;;;8.40;1.00;;;;;;5049401;28;19913;-74
2021/10/31 00:07:48;;;;;;;;;;;8.40;1.00;;;;;;5049169;28;19915;-74
2021/10/31 00:10:15;;;;;;;;;;;8.40;1.00;;;;;;5049514;28;19958;-73
2021/10/31 00:12:41;;;;;;;;;;;8.40;1.00;;;;;;5049871;28;19948;-74
2021/10/31 00:15:07;;;;;;;;;;;8.50;1.00;;;;;;5049915;28;20443;-74
2021/10/31 00:17:33;;;;;;;;;;;8.50;1.00;;;;;;5051638;28;19939;-74
2021/10/31 00:19:58;;;;;;;;;;;8.50;1.00;;;;;;5049921;28;20590;-74
2021/10/31 00:22:24;;;;;;;;;;;8.50;1.00;;;;;;5049930;28;19913;-74
2021/10/31 00:24:50;;;;;;;;;;;8.60;1.00;;;;;;5049186;28;19909;-74
2021/10/31 00:27:15;;;;;;;;;;;8.60;1.00;;;;;;5050913;28;19973;-74
2021/10/31 00:29:41;;;;;;;;;;;8.60;1.00;;;;;;5049633;28;20007;-74
2021/10/31 00:32:07;;;;;;;;;;;8.60;1.00;;;;;;5049385;28;19913;-74
2021/10/31 00:34:33;;;;;;;;;;;8.60;1.00;;;;;;5049367;28;19916;-74
2021/10/31 00:36:58;;;;;;;;;;;8.60;1.00;;;;;;5050364;28;19909;-74
2021/10/31 00:39:24;;;;;;;;;;;8.60;1.00;;;;;;5041044;28;20000;-73
2021/10/31 00:41:49;;;;;;;;;;;8.60;1.00;;;;;;5029870;28;20055;-74
2021/10/31 00:44:15;;;;;;;;;;;8.70;1.00;;;;;;5029561;28;19913;-75
2021/10/31 00:46:40;;;;;;;;;;;8.70;1.00;;;;;;5030087;28;19921;-74
2021/10/31 00:49:06;;;;;;;;;;;8.70;1.00;;;;;;5029102;28;19927;-73
2021/10/31 00:51:31;;;;;;;;;;;8.80;1.00;;;;;;5030347;28;19913;-74
2021/10/31 00:53:58;;;;;;;;;;;8.70;1.00;;;;;;5030038;28;19932;-74
2021/10/31 00:56:24;;;;;;;;;;;8.70;1.00;;;;;;5029843;28;20187;-74
2021/10/31 00:58:50;;;;;;;;;;;8.80;1.00;;;;;;5011747;28;19989;-74
2021/10/31 01:01:15;;;;;;;;;;;8.80;1.00;;;;;;5029009;28;19956;-74
2021/10/31 01:03:41;;;;;;;;;;;8.80;1.00;;;;;;5029065;28;19985;-74
2021/10/31 01:06:26;;;;;;;;;;;8.80;1.00;;;;;;5028908;28;19929;-74
2021/10/31 01:08:58;;;;;;;;;;;8.80;1.00;;;;;;5029295;28;19909;-73
2021/10/31 01:11:42;;;;;;;;;;;8.80;1.00;;;;;;5028967;28;19959;-74
2021/10/31 01:14:29;;;;;;;;;;;8.80;1.00;;;;;;5028474;28;19944;-74
2021/10/31 01:17:05;;;;;;;;;;;8.80;1.00;;;;;;5047724;28;19909;-73
2021/10/31 01:19:49;;;;;;;;;;;8.80;1.00;;;;;;5052845;28;19940;-74
2021/10/31 01:22:42;;;;;;;;;;;8.80;1.00;;;;;;5034773;28;19999;-72
2021/10/31 01:25:07;;;;;;;;;;;8.80;1.00;;;;;;5044310;28;20443;-74
2021/10/31 01:27:39;;;;;;;;;;;8.80;1.00;;;;;;5053016;28;20000;-74
2021/10/31 01:30:07;;;;;;;;;;;8.80;1.00;;;;;;5052544;28;20031;-74
2021/10/31 01:32:38;;;;;;;;;;;8.80;1.00;;;;;;5052536;28;19939;-74
2021/10/31 01:35:12;;;;;;;;;;;8.80;1.00;;;;;;5052443;28;19979;-73
2021/10/31 01:37:56;;;;;;;;;;;8.70;1.00;;;;;;5053057;28;19909;-74
2021/10/31 01:40:27;;;;;;;;;;;8.60;1.00;;;;;;5051601;28;19913;-73
2021/10/31 01:43:07;;;;;;;;;;;8.50;1.00;;;;;;5052321;28;20282;-74
2021/10/31 01:45:39;;;;;;;;;;;8.40;1.00;;;;;;5051939;28;20362;-75
2021/10/31 01:48:04;;;;;;;;;;;8.30;1.00;;;;;;5054365;28;20026;-74
2021/10/31 01:50:30;;;;;;;;;;;8.30;1.00;;;;;;5053906;28;19944;-75
2021/10/31 01:53:25;;;;;;;;;;;8.20;1.00;;;;;;5053929;28;19930;-75
2021/10/31 01:55:54;;;;;;;;;;;8.20;1.00;;;;;;5031437;28;19913;-75
2021/10/31 01:58:21;;;;;;;;;;;8.10;1.00;;;;;;5054393;28;19920;-75
2021/10/31 02:00:48;;;;;;;;;;;8.00;1.00;;;;;;5053359;28;20376;-74
2021/10/31 02:03:15;;;;;;;;;;;8.00;1.00;;;;;;5052386;28;19917;-74
2021/10/31 02:05:41;;;;;;;;;;;7.90;1.00;;;;;;5051689;28;19913;-73
2021/10/31 02:08:08;;;;;;;;;;;7.90;1.00;;;;;;5052887;28;19909;-74
2021/10/31 02:10:35;;;;;;;;;;;7.80;1.00;;;;;;5051701;28;20362;-73
2021/10/31 02:13:02;;;;;;;;;;;7.70;1.00;;;;;;5051878;28;19913;-74
2021/10/31 02:15:28;;;;;;;;;;;7.60;1.00;;;;;;5052122;28;19967;-74
2021/10/31 02:17:55;;;;;;;;;;;7.70;1.00;;;;;;5052259;28;20724;-74
2021/10/31 02:20:21;;;;;;;;;;;7.70;1.00;;;;;;5051636;28;19931;-74
2021/10/31 02:22:54;;;;;;;;;;;7.70;1.00;;;;;;5051705;28;19916;-74
2021/10/31 02:25:20;;;;;;;;;;;7.80;1.00;;;;;;5051309;28;19960;-75
2021/10/31 02:27:46;;;;;;;;;;;7.80;1.00;;;;;;5052651;28;19963;-75
2021/10/31 02:30:12;;;;;;;;;;;7.80;1.00;;;;;;5052039;28;19966;-75
2021/10/31 02:32:38;;;;;;;;;;;7.80;1.00;;;;;;5051714;28;19991;-75
2021/10/31 02:35:08;;;;;;;;;;;7.90;1.00;;;;;;5051396;28;20015;-75
2021/10/31 02:37:34;;;;;;;;;;;7.90;1.00;;;;;;5052330;28;19913;-74
2021/10/31 02:39:59;;;;;;;;;;;7.90;1.00;;;;;;5050563;28;19919;-75
2021/10/31 02:42:25;;;;;;;;;;;8.00;1.00;;;;;;5050905;28;19962;-75
2021/10/31 02:44:50;;;;;;;;;;;8.00;1.00;;;;;;5051181;28;20587;-74
2021/10/31 02:47:22;;;;;;;;;;;8.00;1.00;;;;;;5052495;28;20354;-74
2021/10/31 02:49:48;;;;;;;;;;;8.00;1.00;;;;;;5051312;28;20003;-74
2021/10/31 02:52:35;;;;;;;;;;;7.90;1.00;;;;;;5051178;28;20078;-74
2021/10/31 02:55:11;;;;;;;;;;;7.90;1.00;;;;;;5051023;28;19913;-75
2021/10/31 02:57:45;;;;;;;;;;;7.80;1.00;;;;;;5052269;28;19921;-74
2021/10/31 03:00:13;;;;;;;;;;;7.80;1.00;;;;;;5050897;28;20329;-74
2021/10/31 03:02:38;;;;;;;;;;;7.80;1.00;;;;;;5051143;28;19912;-74
2021/10/31 03:05:04;;;;;;;;;;;7.80;1.00;;;;;;5049717;28;19909;-74
2021/10/31 03:07:30;;;;;;;;;;;7.80;1.00;;;;;;5051601;28;19923;-73
2021/10/31 03:09:55;;;;;;;;;;;7.80;1.00;;;;;;5051512;28;19909;-73
2021/10/31 03:12:21;;;;;;;;;;;7.70;1.00;;;;;;5050919;28;19913;-73
2021/10/31 03:14:47;;;;;;;;;;;7.60;1.00;;;;;;5050960;28;19909;-73
2021/10/31 03:17:13;;;;;;;;;;;7.50;1.00;;;;;;5051857;28;20438;-74
2021/10/31 03:19:39;;;;;;;;;;;7.50;1.00;;;;;;5051112;28;19954;-73
2021/10/31 03:22:05;;;;;;;;;;;7.50;1.00;;;;;;5050364;28;19917;-74
2021/10/31 03:24:31;;;;;;;;;;;7.50;1.00;;;;;;5042433;28;19912;-74
2021/10/31 03:26:57;;;;;;;;;;;7.50;1.00;;;;;;5051201;28;19915;-74
2021/10/31 03:29:24;;;;;;;;;;;7.40;1.00;;;;;;5050904;28;19909;-73
2021/10/31 03:31:50;;;;;;;;;;;7.40;1.00;;;;;;5050213;28;20011;-74
2021/10/31 03:34:16;;;;;;;;;;;7.40;1.00;;;;;;5050435;28;19912;-75
2021/10/31 03:36:41;;;;;;;;;;;7.30;1.00;;;;;;5050828;28;19909;-74
2021/10/31 03:39:07;;;;;;;;;;;7.20;1.00;;;;;;5043614;28;19913;-74
2021/10/31 03:41:33;;;;;;;;;;;7.20;1.00;;;;;;5031090;28;19916;-74
2021/10/31 03:43:59;;;;;;;;;;;7.20;1.00;;;;;;5030091;28;19913;-72
2021/10/31 03:46:24;;;;;;;;;;;7.20;1.00;;;;;;5030284;28;19928;-74
2021/10/31 03:48:50;;;;;;;;;;;7.30;1.00;;;;;;5030591;28;20023;-74
2021/10/31 03:51:15;;;;;;;;;;;7.30;1.00;;;;;;5030940;28;20323;-74
2021/10/31 03:53:41;;;;;;;;;;;7.30;1.00;;;;;;5030329;28;20472;-74
2021/10/31 03:56:06;;;;;;;;;;;7.30;1.00;;;;;;5029567;28;20004;-74
2021/10/31 03:58:32;;;;;;;;;;;7.30;1.00;;;;;;5030377;28;19988;-74
2021/10/31 04:00:59;;;;;;;;;;;7.30;1.00;;;;;;5030016;28;19909;-74
2021/10/31 04:03:25;;;;;;;;;;;7.30;1.00;;;;;;5030087;28;20419;-75
2021/10/31 04:05:50;;;;;;;;;;;7.30;1.00;;;;;;5029760;28;19962;-73
2021/10/31 04:08:16;;;;;;;;;;;7.40;1.00;;;;;;5031093;28;19909;-74
2021/10/31 04:10:42;;;;;;;;;;;7.50;1.00;;;;;;5029261;28;19917;-75
2021/10/31 04:13:07;;;;;;;;;;;7.50;1.00;;;;;;5030257;28;19909;-73
2021/10/31 04:15:33;;;;;;;;;;;7.60;1.00;;;;;;5038448;28;19974;-75
2021/10/31 04:17:58;;;;;;;;;;;7.60;1.00;;;;;;5050443;28;19931;-74
2021/10/31 04:20:24;;;;;;;;;;;7.60;1.00;;;;;;5049599;28;19920;-74
2021/10/31 04:22:50;;;;;;;;;;;7.60;1.00;;;;;;5049153;28;19966;-74
2021/10/31 04:25:15;;;;;;;;;;;7.70;1.00;;;;;;5049055;28;19909;-74
2021/10/31 04:27:41;;;;;;;;;;;7.70;1.00;;;;;;5050789;28;20338;-74
2021/10/31 04:30:08;;;;;;;;;;;7.70;1.00;;;;;;5049867;28;19916;-75
2021/10/31 04:32:36;;;;;;;;;;;7.70;1.00;;;;;;5050102;28;19913;-74
2021/10/31 04:35:01;;;;;;;;;;;7.70;1.00;;;;;;5049958;28;19939;-74
2021/10/31 04:37:28;;;;;;;;;;;7.80;1.00;;;;;;5050820;28;20046;-74
2021/10/31 04:39:53;;;;;;;;;;;7.80;1.00;;;;;;5049639;28;20003;-74
2021/10/31 04:42:19;;;;;;;;;;;7.80;1.00;;;;;;5049547;28;19951;-75
2021/10/31 04:44:45;;;;;;;;;;;7.80;1.00;;;;;;5049363;28;19919;-73
2021/10/31 04:47:10;;;;;;;;;;;7.90;1.00;;;;;;5050016;28;20384;-73
2021/10/31 04:49:36;;;;;;;;;;;7.90;1.00;;;;;;5049883;28;20385;-74
2021/10/31 04:52:02;;;;;;;;;;;7.90;1.00;;;;;;5049709;28;19916;-73
2021/10/31 04:54:28;;;;;;;;;;;7.90;1.00;;;;;;5049318;28;19919;-75
2021/10/31 04:56:53;;;;;;;;;;;8.00;1.00;;;;;;5049261;28;19912;-74
2021/10/31 04:59:19;;;;;;;;;;;8.10;1.00;;;;;;5049851;28;19913;-75
2021/10/31 05:01:45;;;;;;;;;;;8.10;1.00;;;;;;5031207;28;19915;-73
2021/10/31 05:04:11;;;;;;;;;;;8.00;1.00;;;;;;5049209;28;19924;-75
2021/10/31 05:06:36;;;;;;;;;;;8.00;1.00;;;;;;5049667;28;20285;-74
2021/10/31 05:09:02;;;;;;;;;;;7.90;1.00;;;;;;5049464;28;19940;-74
2021/10/31 05:11:28;;;;;;;;;;;7.90;1.00;;;;;;5049041;28;20311;-73
2021/10/31 05:13:53;;;;;;;;;;;7.90;1.00;;;;;;5049419;28;20051;-73
2021/10/31 05:16:19;;;;;;;;;;;7.80;1.00;;;;;;5049086;28;19954;-74
2021/10/31 05:18:45;;;;;;;;;;;7.80;1.00;;;;;;5049850;28;19985;-74
2021/10/31 05:21:10;;;;;;;;;;;7.80;1.00;;;;;;5048663;28;20333;-74
2021/10/31 05:23:36;;;;;;;;;;;7.80;1.00;;;;;;5049319;28;20277;-74
2021/10/31 05:26:02;;;;;;;;;;;7.80;1.00;;;;;;5049825;28;19913;-73
2021/10/31 05:28:28;;;;;;;;;;;7.80;1.00;;;;;;5051811;28;20090;-74
2021/10/31 05:30:54;;;;;;;;;;;7.70;1.00;;;;;;5050674;28;20679;-74
2021/10/31 05:33:21;;;;;;;;;;;7.70;1.00;;;;;;5050371;28;19913;-75
2021/10/31 05:35:46;;;;;;;;;;;7.70;1.00;;;;;;5050394;28;19912;-74
2021/10/31 05:38:13;;;;;;;;;;;7.70;1.00;;;;;;5050199;28;19909;-73
2021/10/31 05:40:39;;;;;;;;;;;7.70;1.00;;;;;;5047739;28;20331;-73
2021/10/31 05:43:04;;;;;;;;;;;7.60;1.00;;;;;;5048365;28;19920;-74
2021/10/31 05:45:30;;;;;;;;;;;7.60;1.00;;;;;;5048595;28;19916;-73
2021/10/31 05:47:56;;;;;;;;;;;7.60;1.00;;;;;;5049463;28;20293;-74
2021/10/31 05:50:21;;;;;;;;;;;7.60;1.00;;;;;;5048938;28;19916;-73
2021/10/31 05:52:47;;;;;;;;;;;7.50;1.00;;;;;;5048704;28;20289;-73
2021/10/31 05:55:14;;;;;;;;;;;7.50;1.00;;;;;;5047962;28;20038;-72
2021/10/31 05:57:41;;;;;;;;;;;7.50;1.00;;;;;;5049281;28;20285;-74
2021/10/31 06:00:08;;;;;;;;;;;7.50;1.00;;;;;;5048382;28;20265;-72
2021/10/31 06:02:34;;;;;;;;;;;7.40;1.00;;;;;;5052057;28;20354;-73
2021/10/31 06:05:01;;;;;;;;;;;7.40;1.00;;;;;;5052471;28;20298;-73
2021/10/31 06:07:27;;;;;;;;;;;7.40;1.00;;;;;;5052589;28;19915;-73
2021/10/31 06:09:53;;;;;;;;;;;7.40;1.00;;;;;;5051652;28;19909;-74
2021/10/31 06:12:19;;;;;;;;;;;7.40;1.00;;;;;;5052092;28;19913;-73
2021/10/31 06:14:44;;;;;;;;;;;7.40;1.00;;;;;;5052103;28;20425;-73
2021/10/31 06:17:10;;;;;;;;;;;7.50;1.00;;;;;;5051018;28;20031;-74
2021/10/31 06:19:35;;;;;;;;;;;7.60;1.00;;;;;;5051744;28;20000;-74
2021/10/31 06:22:01;;;;;;;;;;;8.00;1.00;;;;;;5051304;28;19913;-73
2021/10/31 06:24:27;;;;;;;;;;;8.40;1.00;;;;;;5051351;28;19983;-74
2021/10/31 06:26:52;;;;;;;;;;;8.60;1.00;;;;;;5052139;28;19913;-74
2021/10/31 06:29:18;;;;;;;;;;;8.60;1.00;;;;;;5052072;28;20012;-75
2021/10/31 06:31:43;;;;;;;;;;;8.70;1.00;;;;;;5051254;28;20667;-74
2021/10/31 06:34:09;;;;;;;;;;;8.80;1.00;;;;;;5032861;28;19944;-74
2021/10/31 06:36:35;;;;;;;;;;;9.00;1.00;;;;;;5051792;28;19986;-74
2021/10/31 06:39:00;;;;;;;;;;;9.10;1.00;;;;;;5051076;28;19913;-75
2021/10/31 06:41:26;;;;;;;;;;;9.70;1.00;;;;;;5051380;28;19959;-74
2021/10/31 06:43:51;;;;;;;;;;;10.40;1.00;;;;;;5050501;28;19925;-74
2021/10/31 06:46:17;;;;;;;;;;;10.70;1.00;;;;;;5033849;23;19930;-74
2021/10/31 06:48:42;;;;;;;;;;;10.90;1.00;;;;;;4992687;28;19910;-74
2021/10/31 06:51:08;;;;;;;;;;;11.60;99.90;;;;;;4992051;28;20235;-73
2021/10/31 06:53:33;;;;;;;;;;;13.70;99.90;;;;;;4991820;28;19910;-75
2021/10/31 06:56:00;;;;;;;;;;;15.70;23.50;;;;;;4991082;28;19914;-75
2021/10/31 06:58:25;;;;;;;;;;;17.20;1.00;;;;;;4992374;28;19916;-75
2021/10/31 07:00:51;;;;;;;;;;;18.90;1.00;;;;;;4992294;28;20004;-73
2021/10/31 07:03:16;;;;;;;;;;;20.60;99.90;;;;;;4992210;28;19918;-74
2021/10/31 07:05:42;;;;;;;;;;;22.20;99.90;;;;;;4992528;28;20338;-74
2021/10/31 07:08:07;;;;;;;;;;;23.50;99.90;;;;;;4993224;28;19914;-74
2021/10/31 07:10:33;;;;;;;;;;;24.30;99.90;;;;;;4992457;28;19913;-75
2021/10/31 07:12:58;;;;;;;;;;;24.70;99.90;;;;;;4991116;28;20318;-74
2021/10/31 07:15:24;;;;;;;;;;;25.30;99.90;;;;;;4992204;28;20709;-75
2021/10/31 07:17:49;;;;;;;;;;;26.10;99.90;;;;;;4991585;28;19949;-75
2021/10/31 07:20:15;;;;;;;;;;;27.00;99.90;;;;;;4991281;28;19909;-75
2021/10/31 07:22:41;;;;;;;;;;;27.40;99.90;;;;;;4991184;28;19968;-73
2021/10/31 07:25:08;;;;;;;;;;;27.40;99.90;;;;;;4990392;28;19914;-74
2021/10/31 07:27:34;;;;;;;;;;;27.50;99.90;;;;;;4992017;28;20008;-75
2021/10/31 07:29:59;;;;;;;;;;;28.00;99.90;;;;;;4990952;28;20020;-74
2021/10/31 07:32:26;;;;;;;;;;;28.20;99.90;;;;;;4991464;28;20446;-74
2021/10/31 07:34:51;;;;;;;;;;;28.70;99.90;;;;;;4991464;28;19913;-72
2021/10/31 07:37:17;;;;;;;;;;;29.60;99.90;;;;;;4990209;28;19916;-74
2021/10/31 07:39:43;;;;;;;;;;;30.70;99.90;;;;;;4990553;28;20000;-75
2021/10/31 07:42:09;;;;;;;;;;;31.40;99.90;;;;;;4991001;28;19914;-75
2021/10/31 07:44:35;;;;;;;;;;;30.60;99.90;;;;;;4991922;28;19928;-75
2021/10/31 07:47:00;;;;;;;;;;;30.80;99.90;;;;;;4991228;28;20254;-73
2021/10/31 07:49:26;;;;;;;;;;;30.80;99.90;;;;;;4991202;28;20466;-76
2021/10/31 07:51:51;;;;;;;;;;;30.20;99.90;;;;;;4991274;28;19909;-74
2021/10/31 07:54:22;;;;;;;;;;;29.50;99.90;;;;;;4988749;28;20365;-76
2021/10/31 07:56:48;;;;;;;;;;;28.70;99.90;;;;;;4992339;28;19995;-74
2021/10/31 07:59:14;;;;;;;;;;;28.70;99.90;;;;;;4991688;28;20567;-73
2021/10/31 08:01:40;;;;;;;;;;;28.30;99.90;;;;;;4991003;28;19918;-75
2021/10/31 08:04:05;;;;;;;;;;;28.10;99.90;;;;;;4989625;28;19921;-73
2021/10/31 08:06:31;;;;;;;;;;;28.90;99.90;;;;;;4990870;28;19937;-72
2021/10/31 08:08:57;;;;;;;;;;;30.00;99.90;;;;;;4990421;28;20355;-72
2021/10/31 08:11:22;;;;;;;;;;;32.00;99.90;;;;;;4990896;28;19910;-73
2021/10/31 08:13:48;;;;;;;;;;;33.40;99.90;;;;;;4990741;28;20352;-73
2021/10/31 08:16:13;;;;;;;;;;;33.70;99.90;;;;;;4990329;28;19914;-72
2021/10/31 08:18:39;;;;;;;;;;;33.40;99.90;;;;;;4991452;28;19942;-75
2021/10/31 08:21:05;;;;;;;;;;;32.50;99.90;;;;;;4990361;28;19914;-75
2021/10/31 08:23:30;;;;;;;;;;;32.20;99.90;;;;;;4989786;28;19918;-74
2021/10/31 08:25:58;;;;;;;;;;;31.90;99.90;;;;;;4989639;28;20013;-73
2021/10/31 08:28:24;;;;;;;;;;;32.80;99.90;;;;;;4991106;28;19909;-73
2021/10/31 08:30:57;;;;;;;;;;;33.60;99.90;;;;;;4990226;28;19914;-74
2021/10/31 08:33:25;;;;;;;;;;;34.10;99.90;;;;;;4990735;28;19936;-72
2021/10/31 08:35:50;;;;;;;;;;;35.40;99.90;;;;;;4990288;28;20367;-71
2021/10/31 08:38:17;;;;;;;;;;;35.90;99.90;;;;;;4991404;28;19916;-73
2021/10/31 08:40:43;;;;;;;;;;;37.30;94.30;;;;;;4990076;28;20283;-73
2021/10/31 08:43:09;;;;;;;;;;;37.40;90.60;;;;;;4990829;28;20188;-74
2021/10/31 08:45:35;;;;;;;;;;;35.90;82.70;;;;;;4990516;28;19921;-74
2021/10/31 08:48:01;;;;;;;;;;;35.30;76.80;;;;;;4991500;28;19921;-74
2021/10/31 08:50:27;;;;;;;;;;;36.00;69.30;;;;;;4990041;28;19914;-73
2021/10/31 08:52:53;;;;;;;;;;;36.40;63.30;;;;;;4990342;28;19914;-73
2021/10/31 08:55:18;;;;;;;;;;;36.80;58.40;;;;;;4989410;28;19916;-74
2021/10/31 08:57:43;;;;;;;;;;;37.60;53.60;;;;;;4990657;28;19920;-74
2021/10/31 09:00:09;;;;;;;;;;;38.20;50.10;;;;;;4989851;28;20619;-75
2021/10/31 09:02:36;;;;;;;;;;;39.30;45.20;;;;;;4989524;28;19913;-73
2021/10/31 09:05:02;;;;;;;;;;;40.20;40.50;;;;;;4989799;28;19980;-72
2021/10/31 09:07:28;;;;;;;;;;;40.20;35.60;;;;;;4990291;28;20382;-74
2021/10/31 09:09:53;;;;;;;;;;;39.50;30.50;;;;;;4989482;28;20009;-73
2021/10/31 09:12:19;;;;;;;;;;;39.90;26.70;;;;;;4989609;28;19910;-75
2021/10/31 09:14:44;;;;;;;;;;;39.50;23.40;;;;;;4989454;28;20330;-74
2021/10/31 09:17:11;;;;;;;;;;;39.30;20.10;;;;;;4990311;28;19914;-74
2021/10/31 09:19:36;;;;;;;;;;;39.90;18.10;;;;;;4989391;28;19910;-74
2021/10/31 09:22:02;;;;;;;;;;;40.40;15.50;;;;;;4989367;28;19916;-74
2021/10/31 09:24:28;;;;;;;;;;;40.70;13.20;;;;;;4988658;28;19926;-75
2021/10/31 09:26:54;;;;;;;;;;;40.10;10.30;;;;;;4989889;28;19910;-75
2021/10/31 09:29:20;;;;;;;;;;;39.00;7.80;;;;;;4989886;28;19910;-75
2021/10/31 09:31:45;;;;;;;;;;;39.30;6.50;;;;;;4989278;28;19916;-75
2021/10/31 09:34:11;;;;;;;;;;;39.70;6.20;;;;;;4989073;28;20434;-74
2021/10/31 09:36:36;;;;;;;;;;;39.70;3.90;;;;;;4991933;28;20354;-73
2021/10/31 09:39:06;;;;;;;;;;;38.50;2.30;;;;;;4993168;28;20307;-74
2021/10/31 09:41:31;;;;;;;;;;;37.90;1.00;;;;;;4993240;28;19910;-75
2021/10/31 09:44:09;;;;;;;;;;;37.50;1.00;;;;;;4992932;28;20416;-74
2021/10/31 09:46:35;;;;;;;;;;;37.20;1.00;;;;;;4992816;28;20024;-74
2021/10/31 09:49:03;;;;;;;;;;;36.80;1.00;;;;;;4993233;28;20308;-74
2021/10/31 09:51:28;;;;;;;;;;;36.40;1.00;;;;;;4993629;28;19921;-75
2021/10/31 09:53:56;;;;;;;;;;;36.40;1.00;;;;;;4992891;28;19936;-74
2021/10/31 09:56:22;;;;;;;;;;;35.50;1.00;;;;;;4992784;28;19910;-74
2021/10/31 09:58:50;;;;;;;;;;;34.00;6.50;;;;;;4993227;28;19983;-73
2021/10/31 10:01:15;;;;;;;;;;;;;;;;;;4992630;28;19945;-73
2021/10/31 10:03:51;;;;;;;;;;;31.60;1.00;;;;;;4992587;28;19961;-73
2021/10/31 10:06:18;;;;;;;;;;;30.50;1.00;;;;;;4992920;28;19910;-73
2021/10/31 10:08:58;;;;;;;;;;;30.30;1.00;;;;;;4993725;28;20362;-75
2021/10/31 10:11:25;;;;;;;;;;;29.90;1.70;;;;;;4992906;28;20005;-74
2021/10/31 10:13:50;;;;;;;;;;;29.50;3.30;;;;;;4992360;28;19921;-74
2021/10/31 10:16:21;;;;;;;;;;;29.50;5.10;;;;;;4992739;28;19909;-75
2021/10/31 10:18:47;;;;;;;;;;;28.70;6.20;;;;;;4993002;28;19965;-73
2021/10/31 10:21:26;;;;;;;;;;;27.50;8.00;;;;;;4992387;28;20021;-74
2021/10/31 10:23:55;;;;;;;;;;;27.20;10.90;;;;;;4991461;28;19914;-73
2021/10/31 10:26:29;;;;;;;;;;;27.30;13.40;;;;;;4992056;28;19957;-74
2021/10/31 10:29:01;;;;;;;;;;;27.30;15.30;;;;;;4992745;28;19913;-74
2021/10/31 10:31:28;;;;;;;;;;;26.90;17.20;;;;;;4992223;28;19910;-74
2021/10/31 10:33:53;;;;;;;;;;;27.30;19.30;;;;;;4990707;28;19910;-74
2021/10/31 10:36:19;;;;;;;;;;;27.10;20.70;;;;;;4992564;28;20378;-75
2021/10/31 10:39:00;;;;;;;;;;;26.50;21.50;;;;;;4993467;28;20080;-74
2021/10/31 10:41:46;;;;;;;;;;;26.20;23.10;;;;;;4992186;28;19910;-74
2021/10/31 10:44:23;;;;;;;;;;;26.80;26.30;;;;;;4991661;28;19937;-74
2021/10/31 10:46:53;;;;;;;;;;;26.90;27.10;;;;;;4992726;28;19926;-73
2021/10/31 10:49:20;;;;;;;;;;;26.80;27.90;;;;;;4992367;28;20402;-75
2021/10/31 10:52:04;;;;;;;;;;;27.20;29.50;;;;;;4992843;28;19910;-74
2021/10/31 10:54:30;;;;;;;;;;;27.00;29.70;;;;;;4992015;28;19976;-74
2021/10/31 10:57:00;;;;;;;;;;;26.70;30.60;;;;;;4992159;28;20330;-74
2021/10/31 10:59:26;;;;;;;;;;;26.70;31.60;;;;;;4991668;28;19921;-74
2021/10/31 11:02:08;;;;;;;;;;;26.50;33.60;;;;;;4991168;28;19933;-74
2021/10/31 11:04:35;;;;;;;;;;;26.20;35.30;;;;;;4991182;28;19918;-74
2021/10/31 11:07:01;;;;;;;;;;;26.10;36.40;;;;;;4991532;28;19953;-72
2021/10/31 11:09:35;;;;;;;;;;;26.00;38.60;;;;;;4990827;28;19953;-75
2021/10/31 11:12:20;;;;;;;;;;;26.30;40.30;;;;;;4991768;28;19916;-74
2021/10/31 11:14:45;;;;;;;;;;;26.60;42.20;;;;;;4991261;28;19914;-74
2021/10/31 11:17:14;;;;;;;;;;;27.00;43.50;;;;;;4992015;28;19928;-74
2021/10/31 11:19:41;;;;;;;;;;;26.80;44.50;;;;;;4991447;28;19936;-75
2021/10/31 11:22:07;;;;;;;;;;;26.50;44.60;;;;;;4990013;28;20029;-75
2021/10/31 11:24:33;;;;;;;;;;;26.10;45.70;;;;;;4990750;28;19914;-75
2021/10/31 11:26:59;;;;;;;;;;;25.30;45.80;;;;;;5007202;28;19937;-75
2021/10/31 11:29:29;;;;;;;;;;;25.30;48.70;;;;;;4991792;28;19914;-74
2021/10/31 11:31:54;;;;;;;;;;;25.20;51.20;;;;;;4991473;28;19968;-74
2021/10/31 11:34:20;;;;;;;;;;;25.30;52.80;;;;;;4990837;28;19965;-74
2021/10/31 11:36:46;;;;;;;;;;;25.20;53.80;;;;;;4991916;28;19914;-73
2021/10/31 11:39:12;;;;;;;;;;;25.10;55.40;;;;;;4990743;28;20379;-74
2021/10/31 11:41:38;;;;;;;;;;;24.90;56.50;;;;;;4992122;28;19910;-74
2021/10/31 11:44:04;;;;;;;;;;;25.00;58.50;;;;;;4991300;28;19913;-74
2021/10/31 11:46:43;;;;;;;;;;;25.30;60.40;;;;;;4991404;28;19917;-73
2021/10/31 11:49:09;;;;;;;;;;;25.50;63.10;;;;;;4991183;28;20294;-73
2021/10/31 11:51:42;;;;;;;;;;;25.50;63.50;;;;;;4991309;28;19921;-73
2021/10/31 11:54:07;;;;;;;;;;;25.30;64.20;;;;;;4990368;28;20009;-73
2021/10/31 11:56:40;;;;;;;;;;;24.90;65.60;;;;;;4990802;28;19953;-74
2021/10/31 11:59:14;;;;;;;;;;;24.60;67.80;;;;;;4990612;28;19989;-73
2021/10/31 12:01:44;;;;;;;;;;;24.60;68.90;;;;;;4990773;28;20718;-73
2021/10/31 12:04:35;;;;;;;;;;;24.50;69.50;;;;;;4990144;28;19924;-74
2021/10/31 12:07:08;;;;;;;;;;;23.60;69.80;;;;;;4991802;28;20306;-74
2021/10/31 12:09:34;;;;;;;;;;;23.80;75.20;;;;;;4990140;28;19996;-73
2021/10/31 12:12:06;;;;;;;;;;;23.90;77.80;;;;;;4990299;28;20004;-74
2021/10/31 12:14:42;;;;;;;;;;;23.90;80.20;;;;;;4990614;28;19955;-74
2021/10/31 12:17:08;;;;;;;;;;;23.70;81.30;;;;;;4990699;28;19914;-74
2021/10/31 12:19:36;;;;;;;;;;;23.40;83.30;;;;;;4990189;28;20389;-73
2021/10/31 12:22:06;;;;;;;;;;;23.40;75.40;;;;;;4989885;28;19913;-73
2021/10/31 12:24:39;;;;;;;;;;;23.40;76.90;;;;;;4989777;28;19917;-74
2021/10/31 12:27:15;;;;;;;;;;;23.30;78.90;;;;;;4990666;28;19993;-74
2021/10/31 12:29:43;;;;;;;;;;;23.50;82.00;;;;;;4990348;28;19945;-73
2021/10/31 12:32:19;;;;;;;;;;;23.50;82.60;;;;;;5004110;28;19944;-71
2021/10/31 12:34:46;;;;;;;;;;;23.30;84.20;;;;;;4990034;28;19942;-75
2021/10/31 12:37:26;;;;;;;;;;;23.50;87.10;;;;;;4990242;28;20372;-72
2021/10/31 12:39:52;;;;;;;;;;;23.50;89.00;;;;;;4989033;28;19964;-75
2021/10/31 12:42:23;;;;;;;;;;;23.40;90.00;;;;;;4989539;28;19918;-71
2021/10/31 12:44:55;;;;;;;;;;;23.10;90.20;;;;;;4989510;28;19961;-73
2021/10/31 12:47:26;;;;;;;;;;;22.50;90.90;;;;;;4991225;28;19918;-72
2021/10/31 12:50:11;;;;;;;;;;;22.20;92.50;;;;;;4989499;28;19916;-71
2021/10/31 12:52:37;;;;;;;;;;;22.00;94.30;;;;;;4989113;28;19955;-71
2021/10/31 12:55:07;;;;;;;;;;;22.00;95.80;;;;;;4989665;28;20423;-71
2021/10/31 12:57:33;;;;;;;;;;;22.20;97.20;;;;;;4990324;28;19956;-71
2021/10/31 13:00:04;;;;;;;;;;;22.60;99.00;;;;;;4989188;28;19913;-71
2021/10/31 13:02:47;;;;;;;;;;;22.90;99.80;;;;;;4988745;28;19913;-71
2021/10/31 13:05:12;;;;;;;;;;;23.10;99.90;;;;;;4989768;28;19909;-71
2021/10/31 13:07:42;;;;;;;;;;;23.20;99.90;;;;;;4989403;28;19933;-71
2021/10/31 13:10:27;;;;;;;;;;;23.10;99.90;;;;;;4988888;28;19910;-71
2021/10/31 13:12:58;;;;;;;;;;;23.20;99.90;;;;;;4992843;28;19917;-71
2021/10/31 13:15:25;;;;;;;;;;;23.10;99.90;;;;;;4993140;28;19918;-71
2021/10/31 13:17:52;;;;;;;;;;;23.00;99.90;;;;;;4994121;28;20410;-71
2021/10/31 13:20:20;;;;;;;;;;;23.10;99.90;;;;;;4992712;28;20371;-71
2021/10/31 13:22:48;;;;;;;;;;;22.60;99.90;;;;;;4993186;28;20012;-71
2021/10/31 13:25:14;;;;;;;;;;;22.40;99.90;;;;;;4992543;28;19910;-71
2021/10/31 13:27:41;;;;;;;;;;;22.30;99.90;;;;;;4993790;28;20201;-71
2021/10/31 13:30:08;;;;;;;;;;;22.30;99.90;;;;;;4992689;28;19913;-72
2021/10/31 13:32:34;;;;;;;;;;;22.30;99.90;;;;;;4992623;28;19914;-72
2021/10/31 13:35:00;;;;;;;;;;;22.30;99.90;;;;;;4993039;28;19914;-71
2021/10/31 13:37:25;;;;;;;;;;;22.30;99.90;;;;;;4993304;28;19910;-71
2021/10/31 13:39:54;;;;;;;;;;;22.40;99.90;;;;;;4990779;28;19916;-71
2021/10/31 13:42:25;;;;;;;;;;;22.40;99.90;;;;;;4992396;28;19992;-71
2021/10/31 13:44:51;;;;;;;;;;;22.40;99.90;;;;;;4992606;28;19914;-71
2021/10/31 13:47:39;;;;;;;;;;;22.40;99.90;;;;;;4993265;28;19918;-71
2021/10/31 13:50:06;;;;;;;;;;;22.30;99.90;;;;;;4992745;28;20426;-72
2021/10/31 13:52:33;;;;;;;;;;;22.10;99.90;;;;;;4992252;28;20347;-71
2021/10/31 13:54:59;;;;;;;;;;;22.00;99.90;;;;;;4992417;28;19914;-72
2021/10/31 13:57:27;;;;;;;;;;;21.90;99.90;;;;;;4993083;28;20374;-72
2021/10/31 13:59:54;;;;;;;;;;;21.90;99.90;;;;;;4992622;28;20403;-72
2021/10/31 14:02:22;;;;;;;;;;;21.80;99.90;;;;;;4992190;28;20291;-72
2021/10/31 14:05:08;;;;;;;;;;;21.70;99.90;;;;;;4992416;28;19945;-72
2021/10/31 14:07:38;;;;;;;;;;;21.60;99.90;;;;;;4992339;28;20351;-72
2021/10/31 14:10:04;;;;;;;;;;;21.40;99.90;;;;;;4992242;28;20066;-72
2021/10/31 14:12:32;;;;;;;;;;;21.30;99.90;;;;;;4991781;28;19914;-71
2021/10/31 14:15:09;;;;;;;;;;;21.20;99.90;;;;;;4992364;28;20315;-72
2021/10/31 14:17:36;;;;;;;;;;;21.10;99.90;;;;;;4992773;28;20009;-71
2021/10/31 14:20:05;;;;;;;;;;;20.80;99.90;;;;;;4992323;28;20378;-71
2021/10/31 14:22:47;;;;;;;;;;;20.40;99.90;;;;;;4991850;28;19910;-71
2021/10/31 14:25:14;;;;;;;;;;;20.20;99.90;;;;;;4991773;28;19968;-71
2021/10/31 14:27:43;;;;;;;;;;;20.10;99.90;;;;;;4993097;28;19910;-71
2021/10/31 14:30:11;;;;;;;;;;;20.00;99.90;;;;;;4992180;28;19914;-71
2021/10/31 14:32:48;;;;;;;;;;;19.90;99.90;;;;;;4991865;28;19909;-72
2021/10/31 14:35:14;;;;;;;;;;;19.80;99.90;;;;;;4992578;28;20321;-72